SEH1DV LGSR-LGIR
Flight info
| Callsign | SEH1DV |
|---|---|
| Flight time | 0h 17m |
| Altitude | 13000 |
| Route | NETIS UL607 GIVIS T514 XAVIS |
| Aircraft | A21N/M-SDE2E3FGHIRWXY/LB1 |
Departure
| Time | 2026-05-08 18:11 |
|---|---|
| Airport | Santorini International Airport (LGSR) |
Arrival
| Time | 2026-05-08 18:28 |
|---|---|
| Airport | Heraklion International Nikos Kazantzakis Airport (LGIR) |
| Time | Latitude | Longitude | Altitude | Speed | Heading |
|---|---|---|---|---|---|
| 2026-05-08 17:48 | 36.40383 | 25.47364 | 126 ft | 0 kts | 249° |
| 2026-05-08 18:00 | 36.40389 | 25.47392 | 96 ft | 4 kts | 270° |
| 2026-05-08 18:00 | 36.40383 | 25.47421 | 95 ft | 4 kts | 312° |
| 2026-05-08 18:01 | 36.40367 | 25.47435 | 95 ft | 1 kts | 339° |
| 2026-05-08 18:01 | 36.40363 | 25.47436 | 95 ft | 0 kts | 339° |
| 2026-05-08 18:06 | 36.40376 | 25.47430 | 98 ft | 4 kts | 340° |
| 2026-05-08 18:06 | 36.40411 | 25.47440 | 98 ft | 7 kts | 38° |
| 2026-05-08 18:07 | 36.40451 | 25.47489 | 95 ft | 11 kts | 356° |
| 2026-05-08 18:07 | 36.40530 | 25.47456 | 96 ft | 14 kts | 338° |
| 2026-05-08 18:07 | 36.40627 | 25.47407 | 97 ft | 16 kts | 337° |
| 2026-05-08 18:07 | 36.40723 | 25.47369 | 97 ft | 12 kts | 338° |
| 2026-05-08 18:08 | 36.40792 | 25.47337 | 100 ft | 7 kts | 352° |
| 2026-05-08 18:08 | 36.40826 | 25.47363 | 99 ft | 6 kts | 51° |
| 2026-05-08 18:08 | 36.40833 | 25.47380 | 97 ft | 0 kts | 62° |
| 2026-05-08 18:09 | 36.40837 | 25.47388 | 97 ft | 2 kts | 62° |
| 2026-05-08 18:09 | 36.40840 | 25.47395 | 97 ft | 0 kts | 62° |
| 2026-05-08 18:10 | 36.40843 | 25.47407 | 91 ft | 4 kts | 72° |
| 2026-05-08 18:10 | 36.40854 | 25.47450 | 98 ft | 7 kts | 72° |
| 2026-05-08 18:10 | 36.40829 | 25.47491 | 98 ft | 8 kts | 163° |
| 2026-05-08 18:10 | 36.40764 | 25.47516 | 98 ft | 16 kts | 160° |
| 2026-05-08 18:11 | 36.40333 | 25.47720 | 96 ft | 117 kts | 159° |
| 2026-05-08 18:11 | 36.39313 | 25.48197 | 267 ft | 182 kts | 158° |
| 2026-05-08 18:11 | 36.38177 | 25.48783 | 1004 ft | 192 kts | 153° |
| 2026-05-08 18:11 | 36.37268 | 25.49579 | 1870 ft | 195 kts | 147° |
| 2026-05-08 18:12 | 36.36324 | 25.50283 | 2646 ft | 202 kts | 152° |
| 2026-05-08 18:12 | 36.35847 | 25.50623 | 2962 ft | 209 kts | 153° |
| 2026-05-08 18:12 | 36.34556 | 25.51546 | 3878 ft | 219 kts | 153° |
| 2026-05-08 18:12 | 36.33184 | 25.52528 | 4658 ft | 233 kts | 153° |
| 2026-05-08 18:13 | 36.31734 | 25.53503 | 5403 ft | 248 kts | 163° |
| 2026-05-08 18:13 | 36.29975 | 25.53751 | 5886 ft | 264 kts | 190° |
| 2026-05-08 18:13 | 36.28132 | 25.53411 | 6564 ft | 276 kts | 195° |
| 2026-05-08 18:13 | 36.26215 | 25.53023 | 7427 ft | 281 kts | 195° |
| 2026-05-08 18:14 | 36.24259 | 25.52646 | 8368 ft | 285 kts | 195° |
| 2026-05-08 18:14 | 36.22283 | 25.52278 | 9334 ft | 289 kts | 195° |
| 2026-05-08 18:14 | 36.20269 | 25.51917 | 10270 ft | 294 kts | 196° |
| 2026-05-08 18:14 | 36.18163 | 25.51541 | 10735 ft | 317 kts | 195° |
| 2026-05-08 18:15 | 36.15895 | 25.51141 | 11092 ft | 341 kts | 194° |
| 2026-05-08 18:15 | 36.13506 | 25.50725 | 11572 ft | 358 kts | 194° |
| 2026-05-08 18:15 | 36.11005 | 25.50298 | 12317 ft | 364 kts | 194° |
| 2026-05-08 18:15 | 36.08482 | 25.49866 | 12838 ft | 367 kts | 194° |
| 2026-05-08 18:16 | 36.05935 | 25.49421 | 13049 ft | 369 kts | 194° |
| 2026-05-08 18:16 | 36.03406 | 25.48988 | 13108 ft | 378 kts | 193° |
| 2026-05-08 18:16 | 36.00708 | 25.48519 | 13131 ft | 403 kts | 193° |
| 2026-05-08 18:16 | 35.97853 | 25.48029 | 13132 ft | 424 kts | 193° |
| 2026-05-08 18:17 | 35.94904 | 25.47538 | 13124 ft | 427 kts | 193° |
| 2026-05-08 18:17 | 35.91954 | 25.47049 | 13117 ft | 427 kts | 193° |
| 2026-05-08 18:17 | 35.89013 | 25.46556 | 13111 ft | 427 kts | 193° |
| 2026-05-08 18:17 | 35.86100 | 25.46064 | 13111 ft | 427 kts | 193° |
| 2026-05-08 18:18 | 35.83153 | 25.45565 | 13092 ft | 422 kts | 193° |
| 2026-05-08 18:18 | 35.80309 | 25.45089 | 12906 ft | 402 kts | 193° |
| 2026-05-08 18:18 | 35.77586 | 25.44629 | 12688 ft | 384 kts | 194° |
| 2026-05-08 18:18 | 35.75027 | 25.44194 | 12487 ft | 368 kts | 194° |
| 2026-05-08 18:19 | 35.72536 | 25.43771 | 12301 ft | 353 kts | 194° |
| 2026-05-08 18:19 | 35.70140 | 25.43367 | 12125 ft | 339 kts | 194° |
| 2026-05-08 18:19 | 35.67841 | 25.42978 | 11966 ft | 326 kts | 195° |
| 2026-05-08 18:19 | 35.65637 | 25.42601 | 11821 ft | 313 kts | 195° |
| 2026-05-08 18:20 | 35.63541 | 25.42244 | 11618 ft | 304 kts | 195° |
| 2026-05-08 18:20 | 35.61441 | 25.41883 | 11199 ft | 303 kts | 195° |
| 2026-05-08 18:20 | 35.59366 | 25.41529 | 10775 ft | 303 kts | 195° |
| 2026-05-08 18:20 | 35.57277 | 25.41176 | 10386 ft | 301 kts | 195° |
| 2026-05-08 18:21 | 35.55874 | 25.40939 | 10127 ft | 300 kts | 195° |
| 2026-05-08 18:21 | 35.53830 | 25.40595 | 9726 ft | 299 kts | 194° |
| 2026-05-08 18:21 | 35.51771 | 25.40248 | 9305 ft | 297 kts | 194° |
| 2026-05-08 18:21 | 35.49058 | 25.39790 | 8767 ft | 295 kts | 194° |
| 2026-05-08 18:22 | 35.47680 | 25.39559 | 8491 ft | 295 kts | 194° |
| 2026-05-08 18:22 | 35.45664 | 25.39301 | 8133 ft | 297 kts | 185° |
| 2026-05-08 18:22 | 35.43650 | 25.39861 | 7826 ft | 300 kts | 160° |
| 2026-05-08 18:22 | 35.41799 | 25.41079 | 7309 ft | 304 kts | 153° |
| 2026-05-08 18:23 | 35.39959 | 25.42403 | 6707 ft | 309 kts | 153° |
| 2026-05-08 18:23 | 35.38068 | 25.43707 | 6013 ft | 313 kts | 157° |
| 2026-05-08 18:23 | 35.35964 | 25.44335 | 5288 ft | 311 kts | 183° |
| 2026-05-08 18:23 | 35.33914 | 25.43785 | 4560 ft | 303 kts | 210° |
| 2026-05-08 18:24 | 35.32383 | 25.42170 | 4092 ft | 284 kts | 239° |
| 2026-05-08 18:24 | 35.31737 | 25.39984 | 3704 ft | 268 kts | 264° |
| 2026-05-08 18:24 | 35.31744 | 25.37741 | 3189 ft | 260 kts | 278° |
| 2026-05-08 18:24 | 35.32278 | 25.35662 | 2667 ft | 254 kts | 298° |
| 2026-05-08 18:25 | 35.33074 | 25.33771 | 2255 ft | 242 kts | 286° |
| 2026-05-08 18:25 | 35.33208 | 25.31834 | 2098 ft | 215 kts | 269° |
| 2026-05-08 18:25 | 35.33228 | 25.30171 | 2088 ft | 181 kts | 269° |
| 2026-05-08 18:25 | 35.33261 | 25.28697 | 1898 ft | 166 kts | 270° |
| 2026-05-08 18:26 | 35.33327 | 25.27341 | 1633 ft | 148 kts | 272° |
| 2026-05-08 18:26 | 35.33402 | 25.26135 | 1392 ft | 142 kts | 271° |
| 2026-05-08 18:26 | 35.33487 | 25.24933 | 1185 ft | 146 kts | 272° |
| 2026-05-08 18:26 | 35.33577 | 25.23698 | 962 ft | 144 kts | 273° |
| 2026-05-08 18:27 | 35.33678 | 25.22468 | 755 ft | 144 kts | 274° |
| 2026-05-08 18:27 | 35.33748 | 25.21718 | 620 ft | 145 kts | 274° |
| 2026-05-08 18:27 | 35.33754 | 25.21648 | 623 ft | 145 kts | 274° |
| 2026-05-08 18:27 | 35.33830 | 25.20433 | 361 ft | 141 kts | 271° |
| 2026-05-08 18:28 | 35.33893 | 25.19245 | 173 ft | 141 kts | 272° |
| 2026-05-08 18:28 | 35.33972 | 25.18069 | 99 ft | 130 kts | 274° |
| 2026-05-08 18:28 | 35.34033 | 25.17180 | 97 ft | 75 kts | 274° |
| 2026-05-08 18:28 | 35.34060 | 25.16779 | 98 ft | 27 kts | 274° |
| 2026-05-08 18:29 | 35.34044 | 25.16668 | 97 ft | 5 kts | 172° |
| 2026-05-08 18:29 | 35.34006 | 25.16688 | 97 ft | 7 kts | 141° |
| 2026-05-08 18:29 | 35.33973 | 25.16749 | 97 ft | 10 kts | 116° |
| 2026-05-08 18:29 | 35.33957 | 25.16840 | 99 ft | 12 kts | 95° |
| 2026-05-08 18:30 | 35.33949 | 25.16952 | 95 ft | 14 kts | 95° |
| 2026-05-08 18:30 | 35.33940 | 25.17082 | 95 ft | 16 kts | 94° |
| 2026-05-08 18:30 | 35.33932 | 25.17215 | 96 ft | 7 kts | 94° |
| 2026-05-08 18:30 | 35.33928 | 25.17289 | 96 ft | 10 kts | 94° |
| 2026-05-08 18:31 | 35.33922 | 25.17384 | 96 ft | 12 kts | 94° |
| 2026-05-08 18:31 | 35.33915 | 25.17499 | 96 ft | 15 kts | 95° |
| 2026-05-08 18:31 | 35.33908 | 25.17587 | 99 ft | 6 kts | 95° |
| 2026-05-08 18:31 | 35.33896 | 25.17625 | 100 ft | 5 kts | 127° |
| 2026-05-08 18:32 | 35.33880 | 25.17641 | 97 ft | 3 kts | 154° |
| 2026-05-08 18:32 | 35.33847 | 25.17636 | 96 ft | 7 kts | 198° |
| 2026-05-08 18:32 | 35.33801 | 25.17619 | 96 ft | 5 kts | 194° |
| 2026-05-08 18:32 | 35.33779 | 25.17588 | 96 ft | 5 kts | 271° |
| 2026-05-08 18:33 | 35.33803 | 25.17550 | 98 ft | 5 kts | 317° |
| 2026-05-08 18:33 | 35.33811 | 25.17541 | 97 ft | 2 kts | 316° |
| 2026-05-08 18:33 | 35.33812 | 25.17540 | 96 ft | 0 kts | 316° |